createdAt,value
2022-12-11T00:00:45.202Z,89.36
2022-12-11T00:03:47.550Z,88.80
2022-12-11T00:06:50.559Z,89.00
2022-12-11T00:09:52.354Z,89.17
2022-12-11T00:12:54.087Z,89.55
2022-12-11T00:15:57.855Z,89.22
2022-12-11T00:18:59.873Z,89.60
2022-12-11T00:22:01.517Z,89.32
2022-12-11T00:25:03.360Z,88.93
2022-12-11T00:28:05.046Z,88.97
2022-12-11T00:31:08.660Z,88.99
2022-12-11T00:34:11.996Z,89.16
2022-12-11T00:37:13.800Z,89.03
2022-12-11T00:40:15.543Z,88.73
2022-12-11T00:43:17.729Z,89.38
2022-12-11T00:46:19.388Z,89.12
2022-12-11T00:49:21.158Z,88.94
2022-12-11T00:52:22.965Z,89.37
2022-12-11T00:55:25.481Z,89.27
2022-12-11T00:58:27.805Z,89.50
2022-12-11T01:01:29.613Z,89.06
2022-12-11T01:04:31.445Z,89.48
2022-12-11T01:07:33.054Z,89.11
2022-12-11T01:10:35.394Z,89.66
2022-12-11T01:13:38.262Z,89.15
2022-12-11T01:16:40.010Z,89.05
2022-12-11T01:19:41.736Z,89.01
2022-12-11T01:22:43.394Z,88.98
2022-12-11T01:25:45.042Z,89.03
2022-12-11T01:28:51.589Z,89.04
2022-12-11T01:31:53.191Z,88.40
2022-12-11T01:34:54.942Z,88.01
2022-12-11T01:37:56.598Z,88.71
2022-12-11T01:40:58.175Z,89.30
2022-12-11T01:44:04.002Z,88.46
2022-12-11T01:47:05.658Z,88.68
2022-12-11T01:50:10.262Z,88.55
2022-12-11T01:53:16.756Z,88.66
2022-12-11T01:56:19.164Z,89.74
2022-12-11T01:59:24.693Z,89.82
2022-12-11T02:02:29.970Z,89.24
2022-12-11T02:05:31.700Z,89.10
2022-12-11T02:08:33.448Z,89.55
2022-12-11T02:11:47.935Z,89.12
2022-12-11T02:15:02.154Z,89.39
2022-12-11T02:18:36.737Z,89.61
2022-12-11T02:21:43.468Z,89.87
2022-12-11T02:25:03.834Z,89.00
2022-12-11T02:28:11.322Z,88.88
2022-12-11T02:31:20.311Z,88.47
2022-12-11T02:34:32.199Z,89.06
2022-12-11T02:37:37.756Z,89.06
2022-12-11T02:40:42.231Z,88.46
2022-12-11T02:43:45.389Z,88.56
2022-12-11T02:46:47.316Z,89.18
2022-12-11T02:49:51.933Z,89.34
2022-12-11T02:52:56.532Z,89.28
2022-12-11T02:56:06.940Z,89.27
2022-12-11T02:59:21.518Z,90.13
2022-12-11T03:02:24.034Z,89.57
2022-12-11T03:05:27.229Z,89.85
2022-12-11T03:08:28.918Z,88.98
2022-12-11T03:11:30.571Z,88.97
2022-12-11T03:14:32.221Z,88.58
2022-12-11T03:17:40.028Z,88.60
2022-12-11T03:20:50.209Z,88.03
2022-12-11T03:24:12.319Z,87.99
2022-12-11T03:27:26.669Z,88.06
2022-12-11T03:30:28.998Z,87.70
2022-12-11T03:33:36.384Z,88.05
2022-12-11T03:36:39.964Z,88.87
2022-12-11T03:39:49.938Z,88.77
2022-12-11T03:42:53.534Z,88.66
2022-12-11T03:45:56.906Z,88.61
2022-12-11T03:49:03.286Z,88.25
2022-12-11T03:52:06.448Z,87.90
2022-12-11T03:55:10.460Z,87.67
2022-12-11T03:58:12.265Z,87.50
2022-12-11T04:01:13.871Z,87.10
2022-12-11T04:04:15.735Z,86.17
2022-12-11T04:07:17.353Z,85.78
2022-12-11T04:10:18.968Z,86.44
2022-12-11T04:13:20.577Z,86.10
2022-12-11T04:16:22.225Z,86.45
2022-12-11T04:19:43.254Z,87.18
2022-12-11T04:23:10.960Z,87.85
2022-12-11T04:26:16.823Z,87.09
2022-12-11T04:29:18.507Z,86.89
2022-12-11T04:32:20.097Z,86.89
2022-12-11T04:35:22.258Z,85.91
2022-12-11T04:38:24.025Z,85.42
2022-12-11T04:41:25.725Z,86.01
2022-12-11T04:44:27.342Z,86.85
2022-12-11T04:47:28.955Z,86.87
2022-12-11T04:50:30.593Z,86.00
2022-12-11T04:53:32.569Z,85.80
2022-12-11T04:56:34.248Z,85.65
2022-12-11T04:59:37.171Z,86.19
2022-12-11T05:02:40.460Z,86.11
2022-12-11T05:05:51.298Z,86.37
2022-12-11T05:08:53.566Z,85.85
2022-12-11T05:11:55.553Z,85.98
2022-12-11T05:14:57.182Z,85.00
2022-12-11T05:17:58.782Z,85.82
2022-12-11T05:21:02.706Z,85.17
2022-12-11T05:24:04.634Z,85.11
2022-12-11T05:27:06.483Z,85.49
2022-12-11T05:30:10.103Z,85.17
2022-12-11T05:33:11.730Z,86.09
2022-12-11T05:36:19.004Z,86.74
2022-12-11T05:39:21.111Z,86.19
2022-12-11T05:42:27.136Z,86.22
2022-12-11T05:45:30.525Z,85.84
2022-12-11T05:48:32.152Z,84.99
2022-12-11T05:51:34.754Z,85.04
2022-12-11T05:54:36.376Z,86.11
2022-12-11T05:57:38.047Z,86.14
2022-12-11T06:00:41.933Z,86.91
2022-12-11T06:03:43.850Z,86.88
2022-12-11T06:06:45.516Z,86.49
2022-12-11T06:09:47.160Z,86.13
2022-12-11T06:12:48.755Z,85.11
2022-12-11T06:15:50.351Z,84.75
2022-12-11T06:18:55.793Z,85.07
2022-12-11T06:21:59.797Z,85.88
2022-12-11T06:25:01.414Z,85.84
2022-12-11T06:28:03.078Z,85.46
2022-12-11T06:31:05.116Z,85.86
2022-12-11T06:34:06.828Z,86.20
2022-12-11T06:37:08.445Z,86.80
2022-12-11T06:40:11.853Z,86.17
2022-12-11T06:43:13.436Z,87.37
2022-12-11T06:46:17.952Z,86.37
2022-12-11T06:49:19.709Z,86.67
2022-12-11T06:52:25.442Z,86.53
2022-12-11T06:55:27.065Z,86.74
2022-12-11T06:58:28.741Z,87.28
2022-12-11T07:01:31.491Z,86.46
2022-12-11T07:04:33.315Z,87.33
2022-12-11T07:07:34.977Z,86.29
2022-12-11T07:10:38.822Z,85.94
2022-12-11T07:13:42.186Z,85.22
2022-12-11T07:16:43.959Z,85.97
2022-12-11T07:19:45.692Z,85.20
2022-12-11T07:22:47.356Z,85.76
2022-12-11T07:25:49.363Z,85.82
2022-12-11T07:28:51.246Z,85.97
2022-12-11T07:31:52.979Z,86.01
2022-12-11T07:34:54.777Z,85.07
2022-12-11T07:37:56.403Z,85.07
2022-12-11T07:41:05.456Z,85.14
2022-12-11T07:44:07.196Z,85.00
2022-12-11T07:47:08.815Z,83.69
2022-12-11T07:50:10.853Z,83.56
2022-12-11T07:53:12.486Z,83.27
2022-12-11T07:56:15.702Z,84.21
2022-12-11T07:59:17.343Z,84.75
2022-12-11T08:02:18.976Z,85.40
2022-12-11T08:05:20.817Z,83.88
2022-12-11T08:08:22.485Z,84.55
2022-12-11T08:11:24.984Z,85.33
2022-12-11T08:14:26.659Z,85.46
2022-12-11T08:17:31.795Z,84.50
2022-12-11T08:20:39.185Z,84.57
2022-12-11T08:23:41.294Z,84.13
2022-12-11T08:26:42.921Z,84.23
2022-12-11T08:29:45.742Z,83.27
2022-12-11T08:32:47.367Z,83.87
2022-12-11T08:35:49.033Z,84.11
2022-12-11T08:38:51.558Z,83.89
2022-12-11T08:41:53.199Z,82.01
2022-12-11T08:44:54.844Z,81.50
2022-12-11T08:47:58.054Z,81.77
2022-12-11T08:51:04.463Z,81.90
2022-12-11T08:54:06.110Z,82.46
2022-12-11T08:57:07.717Z,82.43
2022-12-11T09:00:12.382Z,81.84
2022-12-11T09:03:14.039Z,82.48
2022-12-11T09:06:18.203Z,82.01
2022-12-11T09:09:19.813Z,81.55
2022-12-11T09:12:21.433Z,82.12
2022-12-11T09:15:23.061Z,81.72
2022-12-11T09:18:24.723Z,82.56
2022-12-11T09:21:29.734Z,82.69
2022-12-11T09:24:31.465Z,82.67
2022-12-11T09:27:34.108Z,82.43
2022-12-11T09:30:37.271Z,81.29
2022-12-11T09:33:39.303Z,81.01
2022-12-11T09:36:42.549Z,80.96
2022-12-11T09:39:44.261Z,81.09
2022-12-11T09:43:06.448Z,81.82
2022-12-11T09:46:12.543Z,80.66
2022-12-11T09:49:27.182Z,81.68
2022-12-11T09:52:48.758Z,82.32
2022-12-11T09:56:20.982Z,80.81
2022-12-11T09:59:44.821Z,80.54
2022-12-11T10:02:55.476Z,81.77
2022-12-11T10:06:18.102Z,81.71
2022-12-11T10:09:28.027Z,81.88
2022-12-11T10:12:45.719Z,82.62
2022-12-11T10:16:02.334Z,82.01
2022-12-11T10:19:04.487Z,82.00
2022-12-11T10:22:14.414Z,82.20
2022-12-11T10:25:31.965Z,81.04
2022-12-11T10:28:35.017Z,81.98
2022-12-11T10:32:12.069Z,82.06
2022-12-11T10:35:38.414Z,81.66
2022-12-11T10:38:45.482Z,82.50
2022-12-11T10:41:49.716Z,83.52
2022-12-11T10:45:03.395Z,84.33
2022-12-11T10:48:10.477Z,84.97
2022-12-11T10:51:12.166Z,85.51
2022-12-11T10:54:31.102Z,85.77
2022-12-11T10:57:36.104Z,86.21
2022-12-11T11:00:41.010Z,85.04
2022-12-11T11:03:55.372Z,84.56
2022-12-11T11:07:12.750Z,84.71
2022-12-11T11:10:17.883Z,85.46
2022-12-11T11:13:22.308Z,83.67
2022-12-11T11:16:25.508Z,84.47
2022-12-11T11:19:31.783Z,85.32
2022-12-11T11:22:34.010Z,85.50
2022-12-11T11:25:35.729Z,85.07
2022-12-11T11:28:49.996Z,84.87
2022-12-11T11:31:51.687Z,85.35
2022-12-11T11:34:53.398Z,85.00
2022-12-11T11:38:19.953Z,85.78
2022-12-11T11:41:29.300Z,85.92
2022-12-11T11:44:37.075Z,84.74
2022-12-11T11:47:50.910Z,85.30
2022-12-11T11:50:53.914Z,83.66
2022-12-11T11:53:59.024Z,84.07
2022-12-11T11:57:10.960Z,83.96
2022-12-11T12:00:16.169Z,83.19
2022-12-11T12:03:20.006Z,83.80
2022-12-11T12:06:30.623Z,84.64
2022-12-11T12:09:48.239Z,85.34
2022-12-11T12:13:30.083Z,86.21
2022-12-11T12:16:52.820Z,86.29
2022-12-11T12:20:11.119Z,86.88
2022-12-11T12:23:12.717Z,87.08
2022-12-11T12:26:36.168Z,87.06
2022-12-11T12:29:53.475Z,86.44
2022-12-11T12:33:01.130Z,85.42
2022-12-11T12:36:21.123Z,85.91
2022-12-11T12:39:38.113Z,85.42
2022-12-11T12:43:11.021Z,85.49
2022-12-11T12:46:27.839Z,85.42
2022-12-11T12:49:42.279Z,84.56
2022-12-11T12:52:44.874Z,83.38
2022-12-11T12:55:48.527Z,83.12
2022-12-11T12:58:50.274Z,83.17
2022-12-11T13:01:57.140Z,83.78
2022-12-11T13:05:05.793Z,82.74
2022-12-11T13:08:08.106Z,82.65
2022-12-11T13:11:12.677Z,82.68
2022-12-11T13:14:15.307Z,84.11
2022-12-11T13:17:22.667Z,84.58
2022-12-11T13:20:30.738Z,84.06
2022-12-11T13:23:34.045Z,84.67
2022-12-11T13:26:35.721Z,85.70
2022-12-11T13:29:42.083Z,86.00
2022-12-11T13:32:58.716Z,85.80
2022-12-11T13:36:15.779Z,85.67
2022-12-11T13:39:25.954Z,85.39
2022-12-11T13:42:36.120Z,85.15
2022-12-11T13:45:44.555Z,84.92
2022-12-11T13:48:55.267Z,86.15
2022-12-11T13:51:59.951Z,85.21
2022-12-11T13:55:01.705Z,85.39
2022-12-11T13:58:03.340Z,84.55
2022-12-11T14:01:05.196Z,83.01
2022-12-11T14:04:14.028Z,83.52
2022-12-11T14:07:20.454Z,83.21
2022-12-11T14:10:32.408Z,83.33
2022-12-11T14:13:37.187Z,84.20
2022-12-11T14:16:39.318Z,84.46
2022-12-11T14:19:47.337Z,84.65
2022-12-11T14:22:49.038Z,84.95
2022-12-11T14:26:17.601Z,85.19
2022-12-11T14:29:30.271Z,85.28
2022-12-11T14:32:36.875Z,85.00
2022-12-11T14:35:42.014Z,85.38
2022-12-11T14:38:47.367Z,85.40
2022-12-11T14:41:57.824Z,85.23
2022-12-11T14:45:20.609Z,85.78
2022-12-11T14:48:28.477Z,85.39
2022-12-11T14:51:35.535Z,85.06
2022-12-11T14:54:42.909Z,85.24
2022-12-11T14:57:48.354Z,85.42
2022-12-11T15:01:00.738Z,84.81
2022-12-11T15:04:02.378Z,84.60
2022-12-11T15:07:19.712Z,84.72
2022-12-11T15:10:31.300Z,85.73
2022-12-11T15:13:35.201Z,85.22
2022-12-11T15:16:40.459Z,85.97
2022-12-11T15:19:52.657Z,85.11
2022-12-11T15:22:57.577Z,85.01
2022-12-11T15:26:01.632Z,85.24
2022-12-11T15:29:32.701Z,85.40
2022-12-11T15:32:34.523Z,85.28
2022-12-11T15:35:38.092Z,85.14
2022-12-11T15:38:42.038Z,85.23
2022-12-11T15:41:43.718Z,85.40
2022-12-11T15:44:45.554Z,84.93
2022-12-11T15:47:48.571Z,84.83
2022-12-11T15:50:50.807Z,84.73
2022-12-11T15:53:52.467Z,84.46
2022-12-11T15:56:55.198Z,84.97
2022-12-11T15:59:58.337Z,85.14
2022-12-11T16:03:00.211Z,84.82
2022-12-11T16:06:02.298Z,86.25
2022-12-11T16:09:05.124Z,86.10
2022-12-11T16:12:07.271Z,86.39
2022-12-11T16:15:10.659Z,86.17
2022-12-11T16:18:16.700Z,85.92
2022-12-11T16:21:21.618Z,86.38
2022-12-11T16:24:23.546Z,86.40
2022-12-11T16:27:25.235Z,85.11
2022-12-11T16:30:29.236Z,86.01
2022-12-11T16:33:30.894Z,85.82
2022-12-11T16:36:32.505Z,86.18
2022-12-11T16:39:37.019Z,86.99
2022-12-11T16:42:38.880Z,86.75
2022-12-11T16:45:41.973Z,86.42
2022-12-11T16:48:47.578Z,87.36
2022-12-11T16:51:49.839Z,86.42
2022-12-11T16:54:51.473Z,86.24
2022-12-11T16:57:53.132Z,86.93
2022-12-11T17:01:02.632Z,85.91
2022-12-11T17:04:04.304Z,86.57
2022-12-11T17:07:06.204Z,86.18
2022-12-11T17:10:08.484Z,85.91
2022-12-11T17:13:10.095Z,86.25
2022-12-11T17:16:16.806Z,86.56
2022-12-11T17:19:19.751Z,86.49
2022-12-11T17:22:21.517Z,86.29
2022-12-11T17:25:23.509Z,85.63
2022-12-11T17:28:25.673Z,85.77
2022-12-11T17:31:27.803Z,85.43
2022-12-11T17:34:36.088Z,84.74
2022-12-11T17:37:39.710Z,85.91
2022-12-11T17:40:44.221Z,84.76
2022-12-11T17:43:45.902Z,85.36
2022-12-11T17:46:47.706Z,86.05
2022-12-11T17:49:49.499Z,85.92
2022-12-11T17:52:51.671Z,85.69
2022-12-11T17:55:54.027Z,86.05
2022-12-11T17:58:55.693Z,85.39
2022-12-11T18:01:57.917Z,85.87
2022-12-11T18:04:59.784Z,85.98
2022-12-11T18:08:02.127Z,85.42
2022-12-11T18:11:09.995Z,86.84
2022-12-11T18:14:16.881Z,85.98
2022-12-11T18:17:18.939Z,86.90
2022-12-11T18:20:24.749Z,85.91
2022-12-11T18:23:26.610Z,85.40
2022-12-11T18:26:29.086Z,86.02
2022-12-11T18:29:30.922Z,85.51
2022-12-11T18:32:32.843Z,86.41
2022-12-11T18:35:34.616Z,85.51
2022-12-11T18:38:38.132Z,85.91
2022-12-11T18:41:40.140Z,86.79
2022-12-11T18:44:44.391Z,86.29
2022-12-11T18:47:47.238Z,85.74
2022-12-11T18:50:51.370Z,85.80
2022-12-11T18:53:53.614Z,85.72
2022-12-11T18:56:55.502Z,85.75
2022-12-11T19:00:02.287Z,85.65
2022-12-11T19:03:05.289Z,85.98
2022-12-11T19:06:13.269Z,85.86
2022-12-11T19:09:16.002Z,85.79
2022-12-11T19:12:18.221Z,85.55
2022-12-11T19:15:23.814Z,86.00
2022-12-11T19:18:26.772Z,86.12
2022-12-11T19:21:28.741Z,86.56
2022-12-11T19:24:30.723Z,85.99
2022-12-11T19:27:32.931Z,86.45
2022-12-11T19:30:35.270Z,86.24
2022-12-11T19:33:37.345Z,86.05
2022-12-11T19:36:40.636Z,86.12
2022-12-11T19:39:42.633Z,86.65
2022-12-11T19:42:44.810Z,85.37
2022-12-11T19:45:48.137Z,86.43
2022-12-11T19:48:53.805Z,85.80
2022-12-11T19:51:55.530Z,87.05
2022-12-11T19:55:01.777Z,85.32
2022-12-11T19:58:04.174Z,85.52
2022-12-11T20:01:07.400Z,85.95
2022-12-11T20:04:13.223Z,85.57
2022-12-11T20:07:14.866Z,85.45
2022-12-11T20:10:18.101Z,86.01
2022-12-11T20:13:21.524Z,85.57
2022-12-11T20:16:45.856Z,85.07
2022-12-11T20:19:45.339Z,84.92
2022-12-11T20:22:47.430Z,86.29
2022-12-11T20:25:50.077Z,85.88
2022-12-11T20:28:54.227Z,86.05
2022-12-11T20:31:55.880Z,86.61
2022-12-11T20:34:58.273Z,87.78
2022-12-11T20:38:00.112Z,87.30
2022-12-11T20:41:02.036Z,87.79
2022-12-11T20:44:03.741Z,87.49
2022-12-11T20:47:06.783Z,87.68
2022-12-11T20:50:11.053Z,87.92
2022-12-11T20:53:13.107Z,89.09
2022-12-11T20:56:18.895Z,88.60
2022-12-11T20:59:20.935Z,88.17
2022-12-11T21:02:23.737Z,88.06
2022-12-11T21:05:25.618Z,88.01
2022-12-11T21:08:27.272Z,87.77
2022-12-11T21:11:29.718Z,87.42
2022-12-11T21:14:32.010Z,87.05
2022-12-11T21:17:34.874Z,86.30
2022-12-11T21:20:36.974Z,86.58
2022-12-11T21:23:39.150Z,85.90
2022-12-11T21:26:40.770Z,85.74
2022-12-11T21:29:42.391Z,85.33
2022-12-11T21:32:44.804Z,85.76
2022-12-11T21:35:54.585Z,85.34
2022-12-11T21:38:58.780Z,85.28
2022-12-11T21:42:01.234Z,85.03
2022-12-11T21:48:25.618Z,84.58
2022-12-11T21:51:35.968Z,84.05
2022-12-11T21:54:39.732Z,84.22
2022-12-11T21:57:41.494Z,84.56
2022-12-11T22:00:46.681Z,85.11
2022-12-11T22:03:50.117Z,84.99
2022-12-11T22:06:51.786Z,83.97
2022-12-11T22:09:53.515Z,82.86
2022-12-11T22:12:55.309Z,82.84
2022-12-11T22:15:56.988Z,82.50
2022-12-11T22:18:58.918Z,83.51
2022-12-11T22:22:00.843Z,84.61
2022-12-11T22:25:03.668Z,85.64
2022-12-11T22:28:05.447Z,85.33
2022-12-11T22:31:13.997Z,84.46
2022-12-11T22:34:15.737Z,84.37
2022-12-11T22:37:17.328Z,84.24
2022-12-11T22:40:19.150Z,84.37
2022-12-11T22:43:21.718Z,83.95
2022-12-11T22:46:27.256Z,84.50
2022-12-11T22:49:29.027Z,84.86
2022-12-11T22:52:31.085Z,84.40
2022-12-11T22:55:33.149Z,84.21
2022-12-11T22:58:35.369Z,84.85
2022-12-11T23:01:37.396Z,85.37
2022-12-11T23:04:39.843Z,84.92
2022-12-11T23:07:41.550Z,85.39
2022-12-11T23:10:43.166Z,85.35
2022-12-11T23:13:45.251Z,85.00
2022-12-11T23:16:47.169Z,86.03
2022-12-11T23:19:49.269Z,85.79
2022-12-11T23:22:51.422Z,86.16
2022-12-11T23:25:53.275Z,85.49
2022-12-11T23:28:56.492Z,85.75
2022-12-11T23:31:58.321Z,85.71
2022-12-11T23:34:59.975Z,86.11
2022-12-11T23:38:01.608Z,85.19
2022-12-11T23:41:04.231Z,85.95
2022-12-11T23:44:06.209Z,85.79
2022-12-11T23:47:07.776Z,86.48
2022-12-11T23:50:10.005Z,87.81
2022-12-11T23:53:12.128Z,86.14
2022-12-11T23:56:17.166Z,86.25
2022-12-11T23:59:18.802Z,85.65
